EDDL

Dusseldorf

Airport
ICAO code
EDDL
Summary
ICAO Region
EUR
ICAO Territory
Location

Düsseldorf,

Elevation
147 ft
Coordinates
51° 17' 22" N , 6° 46' 0" E
KCC
Cfb
Metar
Observation
EDDL 101720Z AUTO 04011KT 020V080 CAVOK 29/08 Q1022 NOSIG
Station
Duesseldorf
Date/Time
2022-08-10 17:20:00
Wind direction
40°
Wind speed
11 kts
Lowest cloud amount
clouds and visibility OK
Temperature
29°C
Dew point
8°C
Humidity
26%
QNH
1022 hPa
Weather condition
n/a

Description

International airport serving Düsseldorf.

Climatology

Temperate Marine climate/Oceanic climate (Köppen climate classification Cfb) - Moderately cool summer and comparatively warm winter.

Runways

Designator Length Width Surface Rops
05L/23R 2700 45 CON Yes/Yes
05R/23L 3000 45 CON Yes/Yes

Airport map

Aerial View

SKYbrary Partners:

Safety knowledge contributed by: